Time;durP1;ratioP1;P1;durP2;ratioP2;P2;SDS_P1;SDS_P2;PMS_P1;PMS_P2;Temp;Humidity;BMP_temperature;BMP_pressure;BME280_temperature;BME280_humidity;BME280_pressure;Samples;Min_cycle;Max_cycle;Signal;HPM_P1;HPM_P2
2022/02/06 00:01:19;;;;;;;96.78;13.77;;;6.30;99.90;;;;;;5056445;28;20102;-69
2022/02/06 00:03:45;;;;;;;63.65;10.65;;;6.30;99.90;;;;;;5038310;28;20023;-69
2022/02/06 00:06:10;;;;;;;101.60;11.40;;;6.30;99.90;;;;;;5056694;28;20028;-69
2022/02/06 00:08:38;;;;;;;112.00;13.07;;;6.30;99.90;;;;;;5056119;28;20031;-69
2022/02/06 00:11:05;;;;;;;93.22;12.98;;;6.30;99.90;;;;;;5055953;28;20013;-70
2022/02/06 00:13:30;;;;;;;85.32;12.68;;;6.30;99.90;;;;;;5054669;28;20036;-70
2022/02/06 00:15:56;;;;;;;86.68;11.98;;;6.30;99.90;;;;;;5055958;28;20029;-69
2022/02/06 00:18:22;;;;;;;115.00;14.93;;;6.30;99.90;;;;;;5055906;28;20039;-69
2022/02/06 00:20:54;;;;;;;104.72;12.48;;;6.30;99.90;;;;;;5056215;28;20143;-70
2022/02/06 00:23:23;;;;;;;105.95;12.18;;;6.30;99.90;;;;;;5055928;28;20099;-69
2022/02/06 00:26:01;;;;;;;96.90;12.52;;;6.30;99.90;;;;;;5055761;28;20423;-69
2022/02/06 00:31:02;;;;;;;87.25;10.20;;;6.30;99.90;;;;;;5055560;28;20024;-69
2022/02/06 00:38:28;;;;;;;77.70;10.88;;;6.30;99.90;;;;;;5055874;28;20052;-70
2022/02/06 00:43:21;;;;;;;84.18;12.10;;;6.40;99.90;;;;;;5055804;28;20112;-69
2022/02/06 00:45:47;;;;;;;91.40;12.07;;;6.40;99.90;;;;;;5055447;28;20059;-69
2022/02/06 00:48:14;;;;;;;112.22;14.43;;;6.40;99.90;;;;;;5055385;28;20151;-69
2022/02/06 00:50:45;;;;;;;101.05;12.48;;;6.30;99.90;;;;;;5055371;28;20056;-69
2022/02/06 00:53:16;;;;;;;125.97;14.77;;;6.30;99.90;;;;;;5055533;28;20021;-69
2022/02/06 00:55:43;;;;;;;83.68;11.30;;;6.40;99.90;;;;;;5037424;28;20507;-69
2022/02/06 00:58:08;;;;;;;82.38;10.90;;;6.40;99.90;;;;;;5055180;28;20159;-69
2022/02/06 01:00:34;;;;;;;94.50;12.00;;;6.40;99.90;;;;;;5055305;28;20056;-69
2022/02/06 01:02:59;;;;;;;92.93;13.27;;;6.40;99.90;;;;;;5055113;28;20162;-69
2022/02/06 01:05:25;;;;;;;87.93;12.45;;;6.40;99.90;;;;;;5055038;28;20056;-70
2022/02/06 01:07:53;;;;;;;81.90;14.75;;;6.40;99.90;;;;;;5054990;28;20053;-69
2022/02/06 01:10:19;;;;;;;84.53;13.15;;;6.40;99.90;;;;;;5055149;28;20423;-70
2022/02/06 01:12:51;;;;;;;75.03;13.52;;;6.40;99.90;;;;;;5054931;28;20020;-70
2022/02/06 01:15:24;;;;;;;108.57;15.55;;;6.40;99.90;;;;;;5055178;28;20054;-69
2022/02/06 01:17:56;;;;;;;110.90;13.00;;;6.40;99.90;;;;;;5054863;28;20025;-69
2022/02/06 01:20:28;;;;;;;100.10;12.90;;;6.40;99.90;;;;;;5054718;28;20053;-70
2022/02/06 01:23:49;;;;;;;122.75;12.55;;;6.40;99.90;;;;;;5055023;28;20488;-69
2022/02/06 01:25:54;;;;;;;126.82;16.33;;;6.40;99.90;;;;;;5043434;28;20035;-69
2022/02/06 01:28:26;;;;;;;129.32;15.48;;;6.40;99.90;;;;;;5054651;28;20029;-69
2022/02/06 01:31:00;;;;;;;119.88;15.07;;;6.40;99.90;;;;;;5054552;28;20542;-70
2022/02/06 01:33:35;;;;;;;116.30;14.65;;;6.40;99.90;;;;;;5054733;28;20063;-69
2022/02/06 01:36:08;;;;;;;127.80;14.18;;;6.40;99.90;;;;;;5054788;28;20017;-69
2022/02/06 01:41:21;;;;;;;116.38;15.32;;;6.40;99.90;;;;;;5054874;28;20021;-69
2022/02/06 01:43:53;;;;;;;118.57;13.65;;;6.40;99.90;;;;;;5054608;28;20013;-69
2022/02/06 02:13:19;;;;;;;114.68;15.07;;;6.50;99.90;;;;;;5053767;28;20040;-69
2022/02/06 02:47:41;;;;;;;102.75;14.55;;;6.50;99.90;;;;;;5053630;28;20384;-69
2022/02/06 02:50:13;;;;;;;79.18;12.60;;;6.50;99.90;;;;;;5053135;28;20028;-70
2022/02/06 02:52:53;;;;;;;91.93;12.05;;;6.50;99.90;;;;;;5054048;28;20039;-69
2022/02/06 02:58:21;;;;;;;72.35;10.27;;;6.50;99.90;;;;;;5053501;28;20031;-70
2022/02/06 03:03:36;;;;;;;71.07;8.88;;;6.50;99.90;;;;;;5053471;28;20036;-70
2022/02/06 03:06:03;;;;;;;82.15;8.40;;;6.50;99.90;;;;;;5053402;28;20108;-69
2022/02/06 03:08:30;;;;;;;80.47;10.30;;;6.50;99.90;;;;;;5053102;28;20029;-69
2022/02/06 03:10:58;;;;;;;71.25;9.30;;;6.50;99.90;;;;;;5053022;28;20025;-69
2022/02/06 03:13:34;;;;;;;68.20;9.68;;;6.50;99.90;;;;;;5052993;28;20061;-69
2022/02/06 03:16:15;;;;;;;68.82;10.10;;;6.40;99.90;;;;;;5053103;28;20485;-69
2022/02/06 03:19:17;;;;;;;66.97;8.98;;;6.40;99.90;;;;;;5053042;28;20100;-69
2022/02/06 03:21:34;;;;;;;68.50;10.35;;;6.40;99.90;;;;;;5048764;28;20094;-69
2022/02/06 03:24:20;;;;;;;58.90;8.45;;;6.40;99.90;;;;;;5052965;28;20106;-69
2022/02/06 03:26:48;;;;;;;57.55;8.30;;;6.40;99.90;;;;;;5052956;28;20021;-69
2022/02/06 03:29:14;;;;;;;46.22;7.60;;;6.30;99.90;;;;;;5052896;28;20032;-68
2022/02/06 03:31:40;;;;;;;48.60;5.78;;;6.30;99.90;;;;;;5053033;28;20052;-69
2022/02/06 03:34:06;;;;;;;53.50;6.88;;;6.30;99.90;;;;;;5052851;28;20048;-69
2022/02/06 03:36:32;;;;;;;45.72;6.00;;;6.30;99.90;;;;;;5053113;28;20021;-69
2022/02/06 03:38:58;;;;;;;46.80;5.88;;;6.30;99.90;;;;;;5052839;28;20416;-69
2022/02/06 03:41:26;;;;;;;35.97;5.65;;;6.30;99.90;;;;;;5052645;28;20021;-69
2022/02/06 03:44:07;;;;;;;56.72;6.13;;;6.30;99.90;;;;;;5052764;28;20025;-69
2022/02/06 03:46:40;;;;;;;74.20;7.95;;;6.30;99.90;;;;;;5052786;28;20528;-69
2022/02/06 03:51:34;;;;;;;47.80;7.35;;;6.20;99.90;;;;;;5056296;28;20178;-69
2022/02/06 03:54:02;;;;;;;53.15;6.78;;;6.20;99.90;;;;;;5056373;28;20017;-69
2022/02/06 03:56:29;;;;;;;40.78;6.30;;;6.20;99.90;;;;;;5056337;28;20036;-69
2022/02/06 03:58:56;;;;;;;48.95;7.07;;;6.20;99.90;;;;;;5056551;28;20021;-69
2022/02/06 04:01:22;;;;;;;43.50;5.47;;;6.20;99.90;;;;;;5056331;28;20491;-69
2022/02/06 04:03:48;;;;;;;44.65;5.00;;;6.20;99.90;;;;;;5056230;28;20104;-69
2022/02/06 04:06:13;;;;;;;29.80;3.45;;;6.00;99.90;;;;;;5056192;28;20112;-68
2022/02/06 04:08:40;;;;;;;32.92;2.95;;;5.90;99.90;;;;;;5056139;28;20021;-68
2022/02/06 04:11:10;;;;;;;40.55;3.88;;;5.80;99.90;;;;;;5056312;28;20453;-69
2022/02/06 04:13:42;;;;;;;22.30;3.58;;;5.80;99.90;;;;;;5056289;28;20025;-69
2022/02/06 04:16:14;;;;;;;26.35;4.63;;;5.70;99.90;;;;;;5056279;28;20021;-69
2022/02/06 04:18:49;;;;;;;16.67;3.05;;;5.70;99.90;;;;;;5056302;28;20017;-68
2022/02/06 04:21:15;;;;;;;22.63;2.83;;;5.60;99.90;;;;;;5056451;28;20021;-68
2022/02/06 04:23:40;;;;;;;16.65;2.45;;;5.50;99.90;;;;;;5056129;28;20075;-68
2022/02/06 04:26:06;;;;;;;24.92;2.83;;;5.40;99.90;;;;;;5055829;28;20032;-68
2022/02/06 04:28:31;;;;;;;15.02;1.92;;;5.40;99.90;;;;;;5055791;28;20388;-68
2022/02/06 04:30:57;;;;;;;17.10;2.30;;;5.30;99.90;;;;;;5056196;28;20041;-69
2022/02/06 04:33:22;;;;;;;19.55;3.50;;;5.20;99.90;;;;;;5055623;28;20501;-69
2022/02/06 04:35:51;;;;;;;18.55;1.80;;;5.20;99.90;;;;;;5055658;28;20423;-68
2022/02/06 04:38:37;;;;;;;17.90;2.35;;;5.20;99.90;;;;;;5055893;28;20063;-68
2022/02/06 04:41:23;;;;;;;19.63;3.13;;;5.20;99.90;;;;;;5055781;28;20100;-69
2022/02/06 04:55:33;;;;;;;25.27;1.67;;;5.10;99.90;;;;;;5055372;28;20283;-69
2022/02/06 05:11:45;;;;;;;17.17;1.80;;;5.00;99.90;;;;;;5055120;28;20072;-70
2022/02/06 05:15:02;;;;;;;15.23;1.77;;;5.00;99.90;;;;;;5054796;28;20087;-69
2022/02/06 05:25:11;;;;;;;;;;;4.90;99.90;;;;;;5055201;28;20031;-69
2022/02/06 05:30:04;;;;;;;19.27;1.98;;;4.90;99.90;;;;;;5054893;28;20064;-70
2022/02/06 05:32:37;;;;;;;26.30;2.08;;;4.90;99.90;;;;;;5054486;28;20055;-69
2022/02/06 05:35:04;;;;;;;16.70;2.17;;;4.80;99.90;;;;;;5054584;28;20017;-69
2022/02/06 05:37:30;;;;;;;10.85;1.60;;;4.90;99.90;;;;;;5054720;28;20139;-69
2022/02/06 05:39:56;;;;;;;17.42;2.15;;;4.90;99.90;;;;;;5054439;28;20396;-69
2022/02/06 05:42:22;;;;;;;16.63;1.73;;;4.90;99.90;;;;;;5054312;28;20493;-69
2022/02/06 05:44:54;;;;;;;19.23;2.30;;;4.90;99.90;;;;;;5054376;28;20134;-69
2022/02/06 05:47:21;;;;;;;18.55;2.35;;;4.90;99.90;;;;;;5054435;28;20032;-69
2022/02/06 05:49:47;;;;;;;17.33;1.33;;;5.00;99.90;;;;;;5054237;28;20021;-69
2022/02/06 05:52:12;;;;;;;17.08;3.10;;;5.00;99.90;;;;;;5053886;28;20063;-69
2022/02/06 05:54:38;;;;;;;22.85;2.00;;;5.10;99.90;;;;;;5054159;28;20021;-69
2022/02/06 05:57:06;;;;;;;27.02;2.72;;;5.10;99.90;;;;;;5054100;28;20587;-69
2022/02/06 05:59:32;;;;;;;57.17;7.30;;;5.10;99.90;;;;;;5054063;28;20021;-69
2022/02/06 06:01:57;;;;;;;36.10;2.40;;;5.10;99.90;;;;;;5054883;28;20029;-69
2022/02/06 06:04:23;;;;;;;32.55;3.03;;;5.10;99.90;;;;;;5053957;28;20032;-69
2022/02/06 06:06:48;;;;;;;24.70;3.13;;;5.10;99.90;;;;;;5036033;28;20071;-69
2022/02/06 06:09:14;;;;;;;26.60;2.97;;;5.10;99.90;;;;;;5053889;28;20075;-69
2022/02/06 06:11:40;;;;;;;25.70;2.78;;;5.20;99.90;;;;;;5053961;28;20112;-69
2022/02/06 06:14:06;;;;;;;29.02;4.40;;;5.10;99.90;;;;;;5054101;28;20025;-69
2022/02/06 06:16:33;;;;;;;42.28;3.50;;;5.20;99.90;;;;;;5035883;28;20027;-69
2022/02/06 06:19:00;;;;;;;34.05;2.55;;;5.20;99.90;;;;;;5054007;28;20021;-69
2022/02/06 06:21:27;;;;;;;29.13;3.35;;;5.20;99.90;;;;;;5053803;28;20429;-69
2022/02/06 06:23:54;;;;;;;30.15;4.22;;;5.20;99.90;;;;;;5053683;28;20048;-69
2022/02/06 06:26:22;;;;;;;26.10;3.00;;;5.20;99.90;;;;;;5053600;28;20533;-69
2022/02/06 06:28:48;;;;;;;24.02;2.85;;;5.20;99.90;;;;;;5054129;28;20105;-69
2022/02/06 06:31:14;;;;;;;27.25;2.58;;;5.20;99.90;;;;;;5053444;28;20032;-69
2022/02/06 06:33:39;;;;;;;31.33;3.47;;;5.20;99.90;;;;;;5053468;28;20025;-69
2022/02/06 06:36:05;;;;;;;31.98;3.88;;;5.20;99.90;;;;;;5053451;28;20078;-69
2022/02/06 06:38:33;;;;;;;25.52;3.15;;;5.20;99.90;;;;;;5053450;28;20103;-69
2022/02/06 06:40:59;;;;;;;27.98;2.70;;;5.20;99.90;;;;;;5053907;28;20461;-69
2022/02/06 06:43:24;;;;;;;28.77;2.97;;;5.20;99.90;;;;;;5053653;28;20044;-69
2022/02/06 06:45:50;;;;;;;36.50;3.47;;;5.20;99.90;;;;;;5053629;28;20040;-69
2022/02/06 06:48:16;;;;;;;37.58;2.60;;;5.20;99.90;;;;;;5053319;28;20025;-69
2022/02/06 06:50:42;;;;;;;29.50;3.67;;;5.30;99.90;;;;;;5053111;28;20025;-69
2022/02/06 06:53:09;;;;;;;35.33;3.83;;;5.30;99.90;;;;;;5053748;28;20029;-69
2022/02/06 06:55:36;;;;;;;23.60;3.63;;;5.30;99.90;;;;;;5053248;28;20071;-69
2022/02/06 07:00:37;;;;;;;36.67;5.43;;;5.40;99.90;;;;;;5053114;28;20389;-69
2022/02/06 07:03:03;;;;;;;34.05;4.72;;;5.40;99.90;;;;;;5053186;28;20025;-69
2022/02/06 07:05:28;;;;;;;32.30;3.22;;;5.40;99.90;;;;;;5053412;28;20029;-69
2022/02/06 07:07:56;;;;;;;26.73;3.15;;;5.40;99.90;;;;;;5053646;28;20029;-69
2022/02/06 07:10:21;;;;;;;31.95;3.13;;;5.40;99.90;;;;;;5035225;28;20021;-69
2022/02/06 07:12:47;;;;;;;32.03;5.65;;;5.40;99.90;;;;;;5053002;28;20370;-69
2022/02/06 07:15:12;;;;;;;36.38;4.18;;;5.50;99.90;;;;;;5053073;28;20027;-69
2022/02/06 07:17:38;;;;;;;41.72;3.60;;;5.50;99.90;;;;;;5053047;28;20580;-69
2022/02/06 07:20:04;;;;;;;38.38;3.90;;;5.40;99.90;;;;;;5053013;28;20501;-69
2022/02/06 07:22:34;;;;;;;39.80;4.03;;;5.50;99.90;;;;;;5053571;28;20028;-69
2022/02/06 07:25:01;;;;;;;30.95;4.43;;;5.50;99.90;;;;;;5057567;28;20389;-69
2022/02/06 07:27:30;;;;;;;40.63;4.28;;;5.60;99.90;;;;;;5056935;28;20044;-69
2022/02/06 07:29:57;;;;;;;34.92;3.70;;;5.60;99.90;;;;;;5057104;28;20032;-69
2022/02/06 07:32:23;;;;;;;31.83;3.40;;;5.50;99.90;;;;;;5056663;28;20031;-69
2022/02/06 07:34:49;;;;;;;38.58;3.65;;;5.50;99.90;;;;;;5057331;28;20433;-69
2022/02/06 07:37:15;;;;;;;55.17;7.70;;;5.60;99.90;;;;;;5057011;28;20065;-69
2022/02/06 07:39:41;;;;;;;32.72;4.63;;;5.60;99.90;;;;;;5056861;28;20100;-69
2022/02/06 07:42:09;;;;;;;36.92;4.25;;;5.60;99.90;;;;;;5056608;28;20025;-69
2022/02/06 07:44:36;;;;;;;51.55;4.75;;;5.60;99.90;;;;;;5056882;28;20029;-69
2022/02/06 07:47:13;;;;;;;64.30;6.18;;;5.60;99.90;;;;;;5056579;28;20025;-69
2022/02/06 07:49:38;;;;;;;59.65;5.45;;;5.70;99.90;;;;;;5056843;28;20470;-69
2022/02/06 07:52:04;;;;;;;52.78;5.60;;;5.70;99.90;;;;;;5056357;28;20059;-69
2022/02/06 07:54:30;;;;;;;39.92;5.43;;;5.80;99.90;;;;;;5056427;28;20028;-69
2022/02/06 07:56:56;;;;;;;67.90;6.28;;;5.80;99.90;;;;;;5056359;28;20033;-70
2022/02/06 07:59:22;;;;;;;43.47;6.28;;;5.80;99.90;;;;;;5056329;28;20021;-69
2022/02/06 08:01:49;;;;;;;41.25;6.47;;;5.80;99.90;;;;;;5056214;28;20430;-69
2022/02/06 08:04:14;;;;;;;56.05;8.15;;;5.90;99.90;;;;;;5056267;28;20029;-69
2022/02/06 08:06:40;;;;;;;46.35;7.07;;;5.90;99.90;;;;;;5056227;28;20029;-69
2022/02/06 08:09:06;;;;;;;61.60;7.43;;;6.00;99.90;;;;;;5056476;28;20028;-69
2022/02/06 08:11:35;;;;;;;65.15;7.97;;;6.10;99.90;;;;;;5056099;28;20040;-69
2022/02/06 08:14:01;;;;;;;74.45;8.25;;;6.20;99.90;;;;;;5056207;28;20154;-69
2022/02/06 08:16:26;;;;;;;79.55;9.98;;;6.30;99.90;;;;;;5056594;28;20495;-69
2022/02/06 08:18:52;;;;;;;93.85;11.10;;;6.30;99.90;;;;;;5056286;28;20029;-69
2022/02/06 08:21:18;;;;;;;84.22;9.77;;;6.30;99.90;;;;;;5056140;28;20025;-69
2022/02/06 08:23:44;;;;;;;91.22;9.90;;;6.30;99.90;;;;;;5055864;28;20024;-69
2022/02/06 08:26:10;;;;;;;85.93;8.95;;;6.40;99.90;;;;;;5056110;28;20034;-69
2022/02/06 08:28:37;;;;;;;71.05;7.88;;;6.40;99.90;;;;;;5056067;28;20060;-69
2022/02/06 08:31:05;;;;;;;95.13;9.75;;;6.40;99.90;;;;;;5055886;28;20068;-69
2022/02/06 08:33:31;;;;;;;84.35;10.35;;;6.40;99.90;;;;;;5055272;28;20025;-69
2022/02/06 08:35:57;;;;;;;91.25;10.85;;;6.40;99.90;;;;;;5054856;28;20024;-69
2022/02/06 08:38:23;;;;;;;86.97;9.25;;;6.50;99.90;;;;;;5055585;28;20087;-69
2022/02/06 08:40:49;;;;;;;77.35;9.18;;;6.50;99.90;;;;;;5055494;28;20024;-69
2022/02/06 08:43:14;;;;;;;82.53;8.65;;;6.50;99.90;;;;;;5055530;28;20025;-69
2022/02/06 08:45:40;;;;;;;82.00;7.80;;;6.50;99.90;;;;;;5055467;28;20032;-69
2022/02/06 08:48:06;;;;;;;66.72;8.98;;;6.50;99.90;;;;;;5055409;28;20039;-69
2022/02/06 08:50:33;;;;;;;73.18;8.73;;;6.60;99.90;;;;;;5055184;28;20039;-69
2022/02/06 08:52:59;;;;;;;71.50;9.52;;;6.60;99.90;;;;;;5056149;28;20544;-70
2022/02/06 08:55:29;;;;;;;83.30;8.95;;;6.60;99.90;;;;;;5055281;28;20079;-70
2022/02/06 08:57:55;;;;;;;81.63;9.27;;;6.60;99.90;;;;;;5055350;28;20056;-70
2022/02/06 09:00:23;;;;;;;90.55;9.63;;;6.60;99.90;;;;;;5055157;28;20017;-70
2022/02/06 09:02:49;;;;;;;97.07;9.15;;;6.50;99.90;;;;;;5055180;28;20029;-70
2022/02/06 09:05:15;;;;;;;67.88;8.52;;;6.60;99.90;;;;;;5055147;28;20457;-70
2022/02/06 09:07:43;;;;;;;77.47;9.50;;;6.60;99.90;;;;;;5055093;28;20082;-70
2022/02/06 09:10:12;;;;;;;59.85;8.82;;;6.60;99.90;;;;;;5054957;28;20029;-70
2022/02/06 09:12:42;;;;;;;97.05;12.07;;;6.60;99.90;;;;;;5054899;28;20021;-70
2022/02/06 09:15:09;;;;;;;67.43;9.63;;;6.50;99.90;;;;;;5054923;28;20017;-70
2022/02/06 09:17:35;;;;;;;80.10;8.32;;;6.60;99.90;;;;;;5055171;28;20116;-70
2022/02/06 09:20:01;;;;;;;73.20;8.13;;;6.60;99.90;;;;;;5054852;28;20459;-70
2022/02/06 09:22:27;;;;;;;73.85;8.32;;;6.50;99.90;;;;;;5054684;28;20477;-70
2022/02/06 09:24:52;;;;;;;64.10;7.45;;;6.50;99.90;;;;;;5055289;28;20033;-70
2022/02/06 09:27:18;;;;;;;81.10;9.23;;;6.50;99.90;;;;;;5054690;28;20036;-70
2022/02/06 09:29:43;;;;;;;68.00;7.50;;;6.50;99.90;;;;;;5054628;28;20029;-70
2022/02/06 09:37:08;;;;;;;70.60;8.25;;;6.60;99.90;;;;;;5054842;28;20067;-69
2022/02/06 09:39:38;;;;;;;71.75;7.05;;;6.60;99.90;;;;;;5054724;28;20531;-69
2022/02/06 09:42:05;;;;;;;59.92;8.32;;;6.70;99.90;;;;;;5054363;28;20031;-69
2022/02/06 09:44:31;;;;;;;49.63;6.97;;;6.70;99.90;;;;;;5054597;28;20029;-69
2022/02/06 09:46:58;;;;;;;51.95;7.50;;;6.70;99.90;;;;;;5054322;28;20028;-69
2022/02/06 09:49:27;;;;;;;54.88;5.80;;;6.70;99.90;;;;;;5054503;28;20091;-69
2022/02/06 09:51:53;;;;;;;52.22;7.72;;;6.70;99.90;;;;;;5053927;28;20432;-69
2022/02/06 09:54:20;;;;;;;62.30;7.70;;;6.70;99.90;;;;;;5054472;28;20024;-69
2022/02/06 09:56:50;;;;;;;57.92;5.30;;;6.70;99.90;;;;;;5054118;28;20104;-69
2022/02/06 09:59:18;;;;;;;62.53;7.05;;;6.70;99.90;;;;;;5054091;28;20013;-69
2022/02/06 10:01:46;;;;;;;47.85;5.63;;;6.60;99.90;;;;;;5053987;28;20021;-69
2022/02/06 10:04:18;;;;;;;54.78;7.00;;;6.70;99.90;;;;;;5054303;28;20021;-69
2022/02/06 10:06:55;;;;;;;52.88;6.88;;;6.60;99.90;;;;;;5053978;28;20032;-69
2022/02/06 10:09:37;;;;;;;47.95;6.15;;;6.60;99.90;;;;;;5053922;28;20032;-69
2022/02/06 10:12:05;;;;;;;69.78;6.25;;;6.60;99.90;;;;;;5053828;28;20021;-69
2022/02/06 10:14:31;;;;;;;62.85;7.53;;;6.50;99.90;;;;;;5053812;28;20017;-69
2022/02/06 10:16:57;;;;;;;56.70;6.13;;;6.60;99.90;;;;;;5053788;28;20496;-69
2022/02/06 10:19:22;;;;;;;47.15;6.47;;;6.50;99.90;;;;;;5053738;28;20021;-69
2022/02/06 10:21:48;;;;;;;55.80;8.18;;;6.50;99.90;;;;;;5053812;28;20036;-69
2022/02/06 10:24:28;;;;;;;47.00;6.32;;;6.50;99.90;;;;;;5053664;28;20523;-69
2022/02/06 10:29:43;;;;;;;54.55;6.13;;;6.50;99.90;;;;;;5053940;28;20036;-69
2022/02/06 10:32:19;;;;;;;53.15;7.07;;;6.50;99.90;;;;;;5053473;28;20401;-69
2022/02/06 10:34:46;;;;;;;42.13;5.43;;;6.50;99.90;;;;;;5053531;28;20017;-69
2022/02/06 10:37:22;;;;;;;52.08;6.32;;;6.50;99.90;;;;;;5053483;28;20021;-69
2022/02/06 10:40:01;;;;;;;51.28;6.05;;;6.50;99.90;;;;;;5053466;28;20469;-69
2022/02/06 10:42:36;;;;;;;51.60;5.82;;;6.50;99.90;;;;;;5053393;28;20033;-69
2022/02/06 10:45:19;;;;;;;56.30;6.35;;;6.50;99.90;;;;;;5053718;28;20032;-69
2022/02/06 10:47:47;;;;;;;45.47;5.43;;;6.40;99.90;;;;;;5053688;28;20530;-69
2022/02/06 10:50:19;;;;;;;79.13;7.68;;;6.40;99.90;;;;;;5053203;28;20048;-69
2022/02/06 10:52:45;;;;;;;59.70;5.82;;;6.40;99.90;;;;;;5053510;28;20461;-69
2022/02/06 10:55:15;;;;;;;49.95;6.22;;;6.40;99.90;;;;;;5053555;28;20025;-69
2022/02/06 10:57:54;;;;;;;49.22;7.28;;;6.40;99.90;;;;;;5052582;28;20024;-69
2022/02/06 11:00:29;;;;;;;53.53;6.90;;;6.40;99.90;;;;;;5053377;28;20420;-69
2022/02/06 11:03:04;;;;;;;45.28;6.28;;;6.40;99.90;;;;;;5053478;28;20415;-69
2022/02/06 11:05:54;;;;;;;55.38;6.72;;;6.40;99.90;;;;;;5053201;28;20025;-69
2022/02/06 11:08:28;;;;;;;44.83;6.35;;;6.40;99.90;;;;;;5053589;28;20051;-69
2022/02/06 11:10:57;;;;;;;55.90;5.60;;;6.30;99.90;;;;;;5053275;28;20212;-69
2022/02/06 11:13:24;;;;;;;52.53;6.00;;;6.40;99.90;;;;;;5053011;28;20473;-69
2022/02/06 11:15:50;;;;;;;40.75;4.72;;;6.40;99.90;;;;;;5053066;28;20025;-69
2022/02/06 11:18:23;;;;;;;49.92;5.55;;;6.40;99.90;;;;;;5053059;28;20530;-69
2022/02/06 11:20:52;;;;;;;50.00;5.18;;;6.40;99.90;;;;;;5053582;28;20028;-69
2022/02/06 11:23:18;;;;;;;48.80;5.30;;;6.40;99.90;;;;;;5053527;28;20075;-69
2022/02/06 11:25:44;;;;;;;53.50;5.10;;;6.40;99.90;;;;;;5052925;28;20072;-69
2022/02/06 11:28:12;;;;;;;30.02;4.88;;;6.40;99.90;;;;;;5053234;28;20029;-69
2022/02/06 11:30:43;;;;;;;49.97;5.22;;;6.40;99.90;;;;;;5052858;28;20067;-69
2022/02/06 11:33:09;;;;;;;52.15;5.60;;;6.40;99.90;;;;;;5052830;28;20025;-69
2022/02/06 11:35:38;;;;;;;37.63;4.53;;;6.40;99.90;;;;;;5052856;28;20492;-69
2022/02/06 11:43:48;;;;;;;39.08;5.18;;;6.50;99.90;;;;;;5052856;28;20040;-69
2022/02/06 11:46:37;;;;;;;30.70;3.80;;;6.60;99.90;;;;;;5052842;28;20028;-69
2022/02/06 11:49:08;;;;;;;38.35;4.82;;;6.60;99.90;;;;;;5053362;28;20166;-69
2022/02/06 11:51:34;;;;;;;39.15;4.63;;;6.60;99.90;;;;;;5052525;28;20190;-69
2022/02/06 11:54:26;;;;;;;44.92;5.30;;;6.60;99.90;;;;;;5052911;28;20131;-69
2022/02/06 11:57:28;;;;;;;15.55;2.33;;;6.60;99.90;;;;;;5052756;28;20013;-69
2022/02/06 12:00:11;;;;;;;47.90;3.97;;;6.20;99.90;;;;;;5053264;28;20028;-69
2022/02/06 12:02:39;;;;;;;37.03;3.47;;;6.10;99.90;;;;;;5052753;28;20040;-69
2022/02/06 12:05:21;;;;;;;34.78;5.03;;;6.10;99.90;;;;;;5052597;28;20057;-70
2022/02/06 12:08:07;;;;;;;47.53;12.73;;;6.20;99.90;;;;;;5052599;28;20021;-70
2022/02/06 12:10:33;;;;;;;42.38;8.35;;;6.20;99.90;;;;;;5056301;28;20028;-70
2022/02/06 12:13:22;;;;;;;82.30;22.45;;;6.20;99.90;;;;;;5056090;28;20416;-70
2022/02/06 12:15:50;;;;;;;40.72;4.30;;;6.30;99.90;;;;;;5056665;28;20147;-70
2022/02/06 12:18:24;;;;;;;28.50;3.22;;;6.20;99.90;;;;;;5056122;28;20088;-70
2022/02/06 12:20:54;;;;;;;20.92;3.20;;;6.10;99.90;;;;;;5055963;28;20421;-70
2022/02/06 12:23:40;;;;;;;23.35;4.15;;;5.90;99.90;;;;;;5055970;28;20080;-70
2022/02/06 12:26:29;;;;;;;25.77;5.75;;;5.70;99.90;;;;;;5055886;28;20036;-70
2022/02/06 12:28:56;;;;;;;20.13;2.83;;;5.80;99.90;;;;;;5055829;28;20540;-70
2022/02/06 12:31:28;;;;;;;33.55;5.05;;;5.80;99.90;;;;;;5055737;28;20508;-70
2022/02/06 12:34:10;;;;;;;21.70;4.95;;;5.80;99.90;;;;;;5055936;28;20500;-70
2022/02/06 12:37:08;;;;;;;20.92;4.47;;;5.80;99.90;;;;;;5055993;28;20029;-70
2022/02/06 12:39:36;;;;;;;40.75;5.10;;;5.90;99.90;;;;;;5055937;28;20021;-70
2022/02/06 12:42:03;;;;;;;33.75;5.00;;;5.90;99.90;;;;;;5055509;28;20029;-70
2022/02/06 12:44:30;;;;;;;49.92;6.13;;;5.90;99.90;;;;;;5055516;28;20021;-70
2022/02/06 12:47:00;;;;;;;26.38;4.78;;;5.90;99.90;;;;;;5055761;28;20107;-70
2022/02/06 12:49:38;;;;;;;36.85;3.72;;;6.00;99.90;;;;;;5055694;28;20056;-70
2022/02/06 12:52:04;;;;;;;45.72;3.92;;;6.00;99.90;;;;;;5055278;28;20033;-70
2022/02/06 12:54:30;;;;;;;42.08;4.80;;;6.00;99.90;;;;;;5055366;28;20404;-70
2022/02/06 12:56:58;;;;;;;32.13;4.95;;;6.00;99.90;;;;;;5055317;28;20154;-70
2022/02/06 12:59:26;;;;;;;47.35;4.97;;;5.90;99.90;;;;;;5055443;28;20125;-70
2022/02/06 13:01:55;;;;;;;31.23;3.95;;;6.00;99.90;;;;;;5055250;28;20048;-70
2022/02/06 13:04:27;;;;;;;43.28;4.90;;;5.90;99.90;;;;;;5055436;28;20014;-70
2022/02/06 13:06:59;;;;;;;53.47;5.60;;;5.90;99.90;;;;;;5055498;28;20079;-70
2022/02/06 13:09:32;;;;;;;22.58;3.83;;;5.90;99.90;;;;;;5055245;28;20021;-70
2022/02/06 13:14:48;;;;;;;38.88;7.82;;;5.80;99.90;;;;;;5054964;28;19931;-70
2022/02/06 13:17:31;;;;;;;42.25;8.65;;;5.80;99.90;;;;;;5055154;28;20029;-70
2022/02/06 13:20:11;;;;;;;34.42;4.07;;;5.80;99.90;;;;;;5054766;28;20017;-70
2022/02/06 13:22:55;;;;;;;23.38;3.58;;;5.80;99.90;;;;;;5054858;28;20029;-70
2022/02/06 13:25:51;;;;;;;63.00;14.30;;;5.70;99.90;;;;;;5054801;28;20025;-70
2022/02/06 13:28:34;;;;;;;65.65;15.73;;;5.70;99.90;;;;;;5054980;28;20032;-70
2022/02/06 13:36:50;;;;;;;19.77;5.65;;;5.70;99.90;;;;;;5000578;28;20085;-70
2022/02/06 13:39:24;;;;;;;31.48;10.60;;;5.70;99.90;;;;;;5054515;28;20099;-69
2022/02/06 13:41:52;;;;;;;63.35;19.42;;;5.70;99.90;;;;;;5054678;28;20045;-69
2022/02/06 13:44:21;;;;;;;31.02;10.38;;;5.70;99.90;;;;;;5054487;28;20119;-69
2022/02/06 13:46:47;;;;;;;22.42;5.25;;;5.80;99.90;;;;;;5054347;28;20021;-69
2022/02/06 13:49:14;;;;;;;33.50;8.13;;;5.70;99.90;;;;;;5054316;28;20071;-69
2022/02/06 13:51:49;;;;;;;14.32;3.70;;;5.80;99.90;;;;;;5053992;28;20025;-70
2022/02/06 13:54:15;;;;;;;42.10;8.73;;;5.80;99.90;;;;;;5054259;28;20021;-69
2022/02/06 13:56:41;;;;;;;29.48;3.55;;;5.80;99.90;;;;;;5054451;28;20053;-69
2022/02/06 13:59:08;;;;;;;39.65;7.47;;;5.80;99.90;;;;;;5054157;28;20048;-69
2022/02/06 14:01:51;;;;;;;43.45;11.90;;;5.80;99.90;;;;;;5053985;28;20395;-69
2022/02/06 14:04:36;;;;;;;21.08;4.85;;;5.80;99.90;;;;;;5054353;28;20406;-69
2022/02/06 14:07:08;;;;;;;22.80;5.40;;;5.70;99.90;;;;;;5054316;28;20033;-69
2022/02/06 14:12:10;;;;;;;20.17;4.00;;;5.70;99.90;;;;;;5054081;28;20040;-69
2022/02/06 14:14:46;;;;;;;38.45;9.38;;;5.70;99.90;;;;;;5054385;28;20449;-69
2022/02/06 14:17:20;;;;;;;19.90;4.53;;;5.70;99.90;;;;;;5054135;28;20021;-69
2022/02/06 14:19:48;;;;;;;27.73;6.72;;;5.70;99.90;;;;;;5053834;28;20053;-69
2022/02/06 14:22:37;;;;;;;36.75;6.93;;;5.70;99.90;;;;;;5053943;28;20027;-69
2022/02/06 14:25:06;;;;;;;20.23;3.45;;;5.70;99.90;;;;;;5054005;28;20086;-69
2022/02/06 14:27:40;;;;;;;21.73;2.28;;;5.70;99.90;;;;;;5053616;28;20017;-69
2022/02/06 14:30:19;;;;;;;18.10;3.42;;;5.70;99.90;;;;;;5035841;28;20025;-69
2022/02/06 14:33:08;;;;;;;39.75;3.50;;;5.70;99.90;;;;;;5052907;28;20033;-69
2022/02/06 14:35:54;;;;;;;26.60;3.80;;;5.70;99.90;;;;;;5053653;28;20025;-69
2022/02/06 14:41:40;;;;;;;14.77;2.65;;;5.60;99.90;;;;;;5053702;28;20021;-69
2022/02/06 14:44:08;;;;;;;5.82;1.30;;;5.50;99.90;;;;;;5053692;28;20100;-69
2022/02/06 14:46:35;;;;;;;4.97;1.20;;;5.20;99.90;;;;;;5053667;28;20021;-69
2022/02/06 14:49:07;;;;;;;5.57;1.75;;;5.20;99.90;;;;;;5053392;28;20029;-69
2022/02/06 14:51:35;;;;;;;4.15;1.10;;;5.10;99.90;;;;;;5053797;28;20051;-69
2022/02/06 14:54:03;;;;;;;10.13;3.40;;;5.00;99.90;;;;;;5053251;28;20092;-69
2022/02/06 14:56:30;;;;;;;5.82;1.50;;;5.00;99.90;;;;;;5053277;28;20059;-69
2022/02/06 14:58:57;;;;;;;15.32;5.75;;;5.00;99.90;;;;;;5053208;28;20071;-69
2022/02/06 15:01:23;;;;;;;12.73;4.30;;;5.00;99.90;;;;;;5053122;28;20021;-69
2022/02/06 15:03:48;;;;;;;13.70;1.90;;;5.10;99.90;;;;;;5053465;28;20132;-69
2022/02/06 15:06:14;;;;;;;10.30;1.92;;;5.10;99.90;;;;;;5053422;28;20036;-69
2022/02/06 15:08:40;;;;;;;15.65;3.55;;;5.10;99.90;;;;;;5053167;28;20123;-69
2022/02/06 15:11:05;;;;;;;15.68;2.20;;;5.00;99.90;;;;;;5053049;28;20057;-69
2022/02/06 15:13:33;;;;;;;9.43;1.55;;;5.00;99.90;;;;;;5053036;28;20033;-69
2022/02/06 15:16:22;;;;;;;25.38;2.63;;;5.00;99.90;;;;;;5053075;28;20021;-69
2022/02/06 15:19:12;;;;;;;9.32;1.70;;;5.10;99.90;;;;;;5053073;28;20492;-69
2022/02/06 15:21:38;;;;;;;10.50;1.98;;;5.00;99.90;;;;;;5053698;28;20029;-69
2022/02/06 15:24:03;;;;;;;17.77;1.95;;;5.00;99.90;;;;;;5053286;28;20397;-69
2022/02/06 15:26:29;;;;;;;14.50;2.10;;;4.90;99.90;;;;;;5053261;28;20033;-69